Map

Track Data

SID SEASON NUMBER BASIN SUBBASIN NAME ISO_TIME NATURE LAT LON WMO_WIND WMO_PRES WMO_AGENCY TRACK_TYPE DIST2LAND LANDFALL IFLAG USA_AGENCY USA_ATCF_ID USA_LAT USA_LON USA_RECORD USA_STATUS USA_WIND USA_PRES USA_SSHS USA_R34_NE USA_R34_SE USA_R34_SW USA_R34_NW USA_R50_NE USA_R50_SE USA_R50_SW USA_R50_NW USA_R64_NE USA_R64_SE USA_R64_SW USA_R64_NW USA_POCI USA_ROCI USA_RMW USA_EYE TOKYO_LAT TOKYO_LON TOKYO_GRADE TOKYO_WIND TOKYO_PRES TOKYO_R50_DIR TOKYO_R50_LONG TOKYO_R50_SHORT TOKYO_R30_DIR TOKYO_R30_LONG TOKYO_R30_SHORT TOKYO_LAND CMA_LAT CMA_LON CMA_CAT CMA_WIND CMA_PRES HKO_LAT HKO_LON HKO_CAT HKO_WIND HKO_PRES NEWDELHI_LAT NEWDELHI_LON NEWDELHI_GRADE NEWDELHI_WIND NEWDELHI_PRES NEWDELHI_CI NEWDELHI_DP NEWDELHI_POCI REUNION_LAT REUNION_LON REUNION_TYPE REUNION_WIND REUNION_PRES REUNION_TNUM REUNION_CI REUNION_RMW REUNION_R34_NE REUNION_R34_SE REUNION_R34_SW REUNION_R34_NW REUNION_R50_NE REUNION_R50_SE REUNION_R50_SW REUNION_R50_NW REUNION_R64_NE REUNION_R64_SE REUNION_R64_SW REUNION_R64_NW BOM_LAT BOM_LON BOM_TYPE BOM_WIND BOM_PRES BOM_TNUM BOM_CI BOM_RMW BOM_R34_NE BOM_R34_SE BOM_R34_SW BOM_R34_NW BOM_R50_NE BOM_R50_SE BOM_R50_SW BOM_R50_NW BOM_R64_NE BOM_R64_SE BOM_R64_SW BOM_R64_NW BOM_ROCI BOM_POCI BOM_EYE BOM_POS_METHOD BOM_PRES_METHOD NADI_LAT NADI_LON NADI_CAT NADI_WIND NADI_PRES WELLINGTON_LAT WELLINGTON_LON WELLINGTON_WIND WELLINGTON_PRES DS824_LAT DS824_LON DS824_STAGE DS824_WIND DS824_PRES TD9636_LAT TD9636_LON TD9636_STAGE TD9636_WIND TD9636_PRES TD9635_LAT TD9635_LON TD9635_WIND TD9635_PRES TD9635_ROCI NEUMANN_LAT NEUMANN_LON NEUMANN_CLASS NEUMANN_WIND NEUMANN_PRES MLC_LAT MLC_LON MLC_CLASS MLC_WIND MLC_PRES USA_GUST BOM_GUST BOM_GUST_PER REUNION_GUST REUNION_GUST_PER USA_SEAHGT USA_SEARAD_NE USA_SEARAD_SE USA_SEARAD_SW USA_SEARAD_NW STORM_SPEED STORM_DIR
1875228N31284 1875 7 NA NA NOT_NAMED 1875-08-15 12:00:00 TS 31.0000 -76.5000 main 352 350 _____________O -1 31.0000 -76.5000 TS 35 6 72
1875228N31284 1875 7 NA NA NOT_NAMED 1875-08-15 15:00:00 TS 31.1002 -76.1402 main 359 354 _____________P -1 31.1002 -76.1402 TS 37 6 72
1875228N31284 1875 7 NA NA NOT_NAMED 1875-08-15 18:00:00 TS 31.2000 -75.8000 main 364 360 _____________O -1 31.2000 -75.8000 TS 40 6 70
1875228N31284 1875 7 NA NA NOT_NAMED 1875-08-15 21:00:00 TS 31.2999 -75.4924 main 372 372 _____________P -1 31.2999 -75.4924 TS 42 8 121
1875228N31284 1875 7 NA NA NOT_NAMED 1875-08-16 00:00:00 TS 30.7667 -74.9667 70 hurdat_atl main 445 445 O____________O hurdat_atl AL011875 29.5000 -74.5000 HU 70 1 31.4000 -75.2000 TS 45 10 126
1875228N31284 1875 7 NA NA NOT_NAMED 1875-08-16 03:00:00 TS 30.7263 -74.5752 main 478 470 P____________P AL011875 29.9526 -74.2505 HU 70 1 31.4999 -74.8999 TS 47 6 80
1875228N31284 1875 7 NA NA NOT_NAMED 1875-08-16 06:00:00 TS 30.8800 -74.2400 70 hurdat_atl main 474 464 O____________O hurdat_atl AL011875 30.4000 -74.0000 HU 70 1 31.6000 -74.6000 TS 50 7 54
1875228N31284 1875 7 NA NA NOT_NAMED 1875-08-16 09:00:00 TS 31.1181 -73.9479 main 468 450 P____________P AL011875 30.8425 -73.7497 HU 70 1 31.6695 -74.3443 TS 52 8 40
1875228N31284 1875 7 NA NA NOT_NAMED 1875-08-16 12:00:00 TS 31.4667 -73.6667 70 hurdat_atl main 441 430 O____________O hurdat_atl AL011875 31.3000 -73.5000 HU 70 1 31.8000 -74.0000 TS 55 9 35
1875228N31284 1875 7 NA NA NOT_NAMED 1875-08-16 15:00:00 TS 31.8826 -73.3125 main 430 420 P____________P AL011875 31.7850 -73.2497 HU 70 1 32.0779 -73.4381 TS 55 11 36
1875228N31284 1875 7 NA NA NOT_NAMED 1875-08-16 18:00:00 TS 32.3333 -72.9333 70 hurdat_atl main 427 412 O____________O hurdat_atl AL011875 32.3000 -73.0000 HU 70 1 32.4000 -72.8000 TS 55 11 34
1875228N31284 1875 7 NA NA NOT_NAMED 1875-08-16 21:00:00 TS 32.7782 -72.5854 main 413 408 P____________P AL011875 32.8424 -72.7571 HU 70 1 32.6497 -72.2419 TS 55 11 33
1875228N31284 1875 7 NA NA NOT_NAMED 1875-08-17 00:00:00 TS 33.2333 -72.2333 70 hurdat_atl main 417 402 O____________O hurdat_atl AL011875 33.4000 -72.5000 HU 70 1 32.9000 -71.7000 TS 55 11 34
1875228N31284 1875 7 NA NA NOT_NAMED 1875-08-17 03:00:00 TS 33.6949 -71.8548 main 403 402 P____________P AL011875 33.9425 -72.2072 HU 70 1 33.1998 -71.1499 TS 55 11 34
1875228N31284 1875 7 NA NA NOT_NAMED 1875-08-17 06:00:00 TS 34.1667 -71.4667 70 hurdat_atl main 404 404 O____________O hurdat_atl AL011875 34.5000 -71.9000 HU 70 1 33.5000 -70.6000 TS 55 11 34
1875228N31284 1875 7 NA NA NOT_NAMED 1875-08-17 09:00:00 TS 34.6374 -71.0827 main 420 417 P____________P AL011875 35.1074 -71.6072 HU 70 1 33.6975 -70.0336 TS 55 12 33
1875228N31284 1875 7 NA NA NOT_NAMED 1875-08-17 12:00:00 TS 35.1333 -70.7000 70 hurdat_atl main 440 438 O____________O hurdat_atl AL011875 35.7000 -71.3000 HU 70 1 34.0000 -69.5000 TS 55 12 31
1875228N31284 1875 7 NA NA NOT_NAMED 1875-08-17 15:00:00 TS 35.6857 -70.3116 main 468 468 P____________P AL011875 36.2300 -70.9499 HU 70 1 34.5972 -69.0352 TS 57 13 30
1875228N31284 1875 7 NA NA NOT_NAMED 1875-08-17 18:00:00 TS 36.2333 -69.9333 70 hurdat_atl main 504 504 O____________O hurdat_atl AL011875 36.7000 -70.6000 HU 70 1 35.3000 -68.6000 TS 60 12 30
1875228N31284 1875 7 NA NA NOT_NAMED 1875-08-17 21:00:00 TS 36.6997 -69.5922 main 515 500 P____________P AL011875 37.0997 -70.3138 HU 70 1 35.8998 -68.1491 TS 62 11 31
1875228N31284 1875 7 NA NA NOT_NAMED 1875-08-18 00:00:00 TS 37.1667 -69.2333 70 hurdat_atl main 495 452 O____________O hurdat_atl AL011875 37.5000 -70.0000 HU 70 1 36.5000 -67.7000 HU 65 12 32
1875228N31284 1875 7 NA NA NOT_NAMED 1875-08-18 03:00:00 TS 37.7066 -68.8055 main 452 412 P____________P AL011875 37.9849 -69.5872 HU 70 1 37.1499 -67.2422 HU 65 13 33
1875228N31284 1875 7 NA NA NOT_NAMED 1875-08-18 06:00:00 TS 38.2667 -68.3333 70 hurdat_atl main 404 368 O____________O hurdat_atl AL011875 38.5000 -69.1000 HU 70 1 37.8000 -66.8000 HU 65 13 34
1875228N31284 1875 7 NA NA NOT_NAMED 1875-08-18 09:00:00 TS 38.8099 -67.8428 main 372 345 P____________P AL011875 39.0150 -68.5575 HU 70 1 38.3995 -66.4133 HU 65 13 36
1875228N31284 1875 7 NA NA NOT_NAMED 1875-08-18 12:00:00 TS 39.3333 -67.3333 70 hurdat_atl main 350 335 O____________O hurdat_atl AL011875 39.5000 -68.0000 HU 70 1 39.0000 -66.0000 HU 65 13 38
1875228N31284 1875 7 NA NA NOT_NAMED 1875-08-18 15:00:00 TS 39.8290 -66.8136 main 341 334 P____________P AL011875 39.9223 -67.4842 HU 70 1 39.6425 -65.4722 HU 65 13 39
1875228N31284 1875 7 NA NA NOT_NAMED 1875-08-18 18:00:00 TS 40.3000 -66.3000 70 hurdat_atl main 346 311 O____________O hurdat_atl AL011875 40.3000 -67.0000 HU 70 1 40.3000 -64.9000 HU 65 12 40
1875228N31284 1875 7 NA NA NOT_NAMED 1875-08-18 21:00:00 TS 40.7548 -65.8059 main 300 255 P____________P AL011875 40.6573 -66.5344 HU 70 1 40.9497 -64.3489 HU 65 12 39
1875228N31284 1875 7 NA NA NOT_NAMED 1875-08-19 00:00:00 TS 41.2000 -65.3333 70 hurdat_atl main 255 212 O____________O hurdat_atl AL011875 41.0000 -66.1000 HU 70 1 41.6000 -63.8000 HU 65 11 37
1875228N31284 1875 7 NA NA NOT_NAMED 1875-08-19 03:00:00 TS 41.6445 -64.8996 main 213 168 P____________P AL011875 41.3418 -65.7286 HU 70 1 42.2498 -63.2416 HU 62 11 37
1875228N31284 1875 7 NA NA NOT_NAMED 1875-08-19 06:00:00 TS 42.1000 -64.4333 70 hurdat_atl main 172 153 O____________O hurdat_atl AL011875 41.7000 -65.3000 HU 70 1 42.9000 -62.7000 TS 60 12 39
1875228N31284 1875 7 NA NA NOT_NAMED 1875-08-19 09:00:00 TS 42.5677 -63.8893 main 151 143 P____________P AL011875 42.0766 -64.7383 HU 70 1 43.5497 -62.1912 TS 55 15 43
1875228N31284 1875 7 NA NA NOT_NAMED 1875-08-19 12:00:00 TS 43.1800 -63.0800 70 hurdat_atl main 139 100 O____________O hurdat_atl AL011875 42.5000 -64.0000 HU 70 1 44.2000 -61.7000 TS 50 18 43
1875228N31284 1875 7 NA NA NOT_NAMED 1875-08-19 15:00:00 TS 43.9056 -62.1625 main 100 44 P____________P AL011875 42.9849 -63.0619 HU 70 1 44.8262 -61.2630 TS 45 22 40
1875228N31284 1875 7 NA NA NOT_NAMED 1875-08-19 18:00:00 TS 44.8333 -61.1333 70 hurdat_atl main 44 0 O____________O hurdat_atl AL011875 43.5000 -62.0000 HU 70 1 45.5000 -60.7000 TS 40 29 36
1875228N31284 1875 7 NA NA NOT_NAMED 1875-08-19 21:00:00 TS 46.2258 -59.8154 main 0 0 _____________P AL011875 HU -1 46.2258 -59.8154 TS 37 28 35
1875228N31284 1875 7 NA NA NOT_NAMED 1875-08-20 00:00:00 ET 47.1000 -58.8000 main 55 0 _____________O -1 47.1000 -58.8000 EX 35 24 35
1875228N31284 1875 7 NA NA NOT_NAMED 1875-08-20 03:00:00 ET 48.1744 -57.8472 main 0 0 _____________P -1 48.1744 -57.8472 EX 35 26 29
1875228N31284 1875 7 NA NA NOT_NAMED 1875-08-20 06:00:00 ET 49.4000 -56.9000 main 0 0 _____________O -1 49.4000 -56.9000 EX 35 28 26
1875228N31284 1875 7 NA NA NOT_NAMED 1875-08-20 09:00:00 ET 50.6888 -55.9603 main 7 0 _____________P -1 50.6888 -55.9603 EX 35 29 25
1875228N31284 1875 7 NA NA NOT_NAMED 1875-08-20 12:00:00 ET 52.0000 -55.0000 main 48 _____________O -1 52.0000 -55.0000 EX 35 29 24

About IBTrACS Database

This database is a web-friendly format of International Best Track Archive for Climate Stewardship (IBTrACS), a global best track data archive curated by NOAA dating back to 1842.

Updated: 2021-10-08